Time;durP1;ratioP1;P1;durP2;ratioP2;P2;SDS_P1;SDS_P2;PMS_P1;PMS_P2;Temp;Humidity;BMP_temperature;BMP_pressure;BME280_temperature;BME280_humidity;BME280_pressure;Samples;Min_cycle;Max_cycle;Signal;HPM_P1;HPM_P2
2021/08/03 00:00:32;;;;;;;5.20;2.78;;;;;;;15.54;74.18;98792.41;3588064;40;20063;-67
2021/08/03 00:03:03;;;;;;;4.22;2.58;;;;;;;15.45;73.84;98785.78;3588922;40;20060;-67
2021/08/03 00:05:33;;;;;;;5.88;2.50;;;;;;;15.32;74.54;98781.44;3589011;40;20051;-65
2021/08/03 00:08:09;;;;;;;8.95;2.40;;;;;;;15.31;74.32;98782.47;3589033;40;20044;-66
2021/08/03 00:10:38;;;;;;;2.60;2.38;;;;;;;15.35;74.17;98788.97;3589135;40;20329;-67
2021/08/03 00:13:07;;;;;;;2.53;2.13;;;;;;;15.45;74.17;98790.28;3588919;40;20045;-67
2021/08/03 00:15:35;;;;;;;4.20;2.33;;;;;;;15.51;73.99;98781.38;3589079;40;20056;-67
2021/08/03 00:18:03;;;;;;;2.65;1.85;;;;;;;15.56;74.05;98777.03;3587629;40;20037;-67
2021/08/03 00:20:31;;;;;;;2.42;1.90;;;;;;;15.58;73.84;98772.28;3588751;40;20044;-66
2021/08/03 00:23:01;;;;;;;2.85;2.30;;;;;;;15.65;73.78;98779.41;3588868;40;20044;-67
2021/08/03 00:25:30;;;;;;;2.85;1.98;;;;;;;15.68;73.72;98766.47;3588975;40;20076;-67
2021/08/03 00:27:58;;;;;;;2.72;2.22;;;;;;;15.67;73.20;98775.47;3588987;40;20048;-67
2021/08/03 00:30:27;;;;;;;2.78;2.00;;;;;;;15.65;73.19;98764.25;3588957;40;20409;-67
2021/08/03 00:32:55;;;;;;;2.25;2.05;;;;;;;15.64;73.10;98759.94;3588132;40;20044;-67
2021/08/03 00:35:23;;;;;;;2.53;2.13;;;;;;;15.64;73.49;98764.44;3588778;40;20092;-66
2021/08/03 00:37:52;;;;;;;2.72;2.03;;;;;;;15.60;73.20;98756.09;3587666;40;20061;-66
2021/08/03 00:40:21;;;;;;;2.63;2.15;;;;;;;15.60;73.58;98761.41;3588196;40;20044;-67
2021/08/03 00:42:50;;;;;;;2.33;1.90;;;;;;;15.63;73.14;98763.59;3588676;40;20436;-67
2021/08/03 00:45:18;;;;;;;2.22;2.03;;;;;;;15.63;73.19;98757.47;3587639;40;20325;-68
2021/08/03 00:47:51;;;;;;;2.35;2.13;;;;;;;15.56;73.04;98761.06;3644321;22;20318;-69
2021/08/03 00:50:19;;;;;;;2.30;2.10;;;;;;;15.49;73.59;98751.53;3587457;40;20052;-69
2021/08/03 00:52:47;;;;;;;2.78;2.20;;;;;;;15.41;73.43;98755.31;3588374;40;20059;-69
2021/08/03 00:55:16;;;;;;;4.07;2.20;;;;;;;15.32;73.80;98760.13;3589169;40;20084;-69
2021/08/03 00:57:49;;;;;;;3.97;2.33;;;;;;;15.25;74.06;98764.72;3590203;40;20052;-69
2021/08/03 01:00:19;;;;;;;2.25;2.10;;;;;;;15.23;74.13;98766.00;3588738;40;20045;-69
2021/08/03 01:02:48;;;;;;;4.88;2.17;;;;;;;15.26;74.28;98769.00;3589260;40;20413;-67
2021/08/03 01:05:18;;;;;;;7.43;2.92;;;;;;;15.26;74.38;98766.34;3589165;40;20425;-67
2021/08/03 01:07:55;;;;;;;2.33;2.13;;;;;;;15.28;74.01;98758.13;3589187;40;20043;-68
2021/08/03 01:10:28;;;;;;;3.88;2.45;;;;;;;15.25;74.76;98756.72;3590342;40;20133;-68
2021/08/03 01:13:08;;;;;;;2.90;2.30;;;;;;;15.28;74.12;98763.47;3589865;40;20052;-67
2021/08/03 01:15:46;;;;;;;6.05;2.10;;;;;;;15.26;74.12;98757.53;3588681;40;20401;-67
2021/08/03 01:18:18;;;;;;;2.38;2.17;;;;;;;15.27;74.44;98764.50;3588647;40;20433;-67
2021/08/03 01:21:12;;;;;;;2.78;2.10;;;;;;;15.30;74.22;98769.38;3588921;40;20044;-67
2021/08/03 01:23:57;;;;;;;4.65;2.30;;;;;;;15.34;74.14;98765.22;3588691;40;20332;-67
2021/08/03 01:26:49;;;;;;;3.35;2.67;;;;;;;15.30;73.87;98767.50;3588628;40;20044;-67
2021/08/03 01:29:26;;;;;;;2.55;2.15;;;;;;;15.24;74.29;98765.75;3588421;40;20126;-67
2021/08/03 01:32:01;;;;;;;3.78;2.40;;;;;;;15.24;74.04;98762.28;3589046;40;20052;-67
2021/08/03 01:34:32;;;;;;;5.20;2.50;;;;;;;15.08;74.02;98753.06;3589679;40;20405;-67
2021/08/03 01:37:05;;;;;;;4.07;2.70;;;;;;;14.92;74.95;98751.78;3588709;40;20060;-66
2021/08/03 01:39:37;;;;;;;3.22;2.22;;;;;;;14.85;75.21;98757.19;3588730;40;20048;-67
2021/08/03 01:42:08;;;;;;;3.80;2.97;;;;;;;14.88;75.53;98755.13;3588792;40;20134;-67
2021/08/03 01:44:42;;;;;;;2.45;2.05;;;;;;;14.81;75.53;98747.19;3589145;40;20051;-66
2021/08/03 01:47:11;;;;;;;6.68;2.97;;;;;;;14.82;75.70;98751.50;3588597;40;20055;-67
2021/08/03 01:49:46;;;;;;;2.80;2.58;;;;;;;14.78;75.52;98751.13;3589205;40;20052;-67
2021/08/03 01:52:18;;;;;;;2.80;2.40;;;;;;;14.79;75.67;98750.09;3588731;40;20401;-67
2021/08/03 01:54:50;;;;;;;;;;;;;;;14.85;75.67;98748.38;3589273;40;20044;-67
2021/08/03 01:57:24;;;;;;;3.88;2.60;;;;;;;14.89;75.38;98751.41;3588514;40;20274;-67
2021/08/03 01:59:54;;;;;;;4.78;2.50;;;;;;;14.92;75.83;98756.31;3588408;40;20049;-67
2021/08/03 02:02:25;;;;;;;2.60;2.40;;;;;;;14.91;75.27;98749.38;3589785;40;20133;-67
2021/08/03 02:05:06;;;;;;;2.83;2.53;;;;;;;14.78;75.64;98748.47;3589380;40;20094;-67
2021/08/03 02:07:35;;;;;;;3.88;3.08;;;;;;;14.71;75.28;98750.38;3588522;40;20037;-67
2021/08/03 02:10:05;;;;;;;5.47;3.05;;;;;;;14.56;75.63;98744.59;3589335;40;20048;-67
2021/08/03 02:12:34;;;;;;;4.38;2.40;;;;;;;14.54;76.18;98750.13;3588337;40;20056;-67
2021/08/03 02:15:07;;;;;;;2.83;2.60;;;;;;;14.60;76.52;98743.94;3589645;40;20056;-67
2021/08/03 02:17:35;;;;;;;3.33;2.72;;;;;;;14.65;76.19;98745.91;3588546;40;20433;-67
2021/08/03 02:20:17;;;;;;;4.18;2.92;;;;;;;14.65;76.03;98737.94;3588273;40;20056;-67
2021/08/03 02:22:52;;;;;;;4.07;2.85;;;;;;;14.67;76.08;98735.88;3588183;40;20071;-67
2021/08/03 02:25:25;;;;;;;5.80;3.15;;;;;;;14.56;75.70;98732.09;3588515;40;20396;-66
2021/08/03 02:27:55;;;;;;;5.78;3.28;;;;;;;14.45;76.18;98730.16;3588440;40;20584;-66
2021/08/03 02:30:27;;;;;;;3.70;2.90;;;;;;;14.43;76.91;98731.38;3588110;40;20121;-66
2021/08/03 02:33:01;;;;;;;6.38;3.50;;;;;;;14.41;76.61;98733.44;3588485;40;20044;-66
2021/08/03 02:35:33;;;;;;;4.17;2.80;;;;;;;14.47;76.88;98730.72;3589328;40;20081;-66
2021/08/03 02:38:06;;;;;;;5.50;3.65;;;;;;;14.52;76.53;98733.56;3588441;40;20287;-66
2021/08/03 02:40:37;;;;;;;4.13;3.38;;;;;;;14.55;76.25;98729.66;3588439;40;20130;-66
2021/08/03 02:43:16;;;;;;;2.88;2.58;;;;;;;14.51;76.25;98720.50;3588314;40;20048;-67
2021/08/03 02:45:49;;;;;;;3.22;2.53;;;;;;;14.44;76.41;98722.38;3588381;40;20048;-68
2021/08/03 02:48:20;;;;;;;3.50;2.90;;;;;;;14.44;76.76;98717.88;3589323;40;20076;-67
2021/08/03 02:50:48;;;;;;;4.68;3.03;;;;;;;14.45;76.78;98718.66;3589591;40;20048;-66
2021/08/03 02:53:24;;;;;;;3.58;2.60;;;;;;;14.38;76.68;98714.25;3588425;40;20060;-67
2021/08/03 02:55:56;;;;;;;4.28;3.00;;;;;;;14.40;76.66;98708.69;3588531;40;20052;-67
2021/08/03 02:58:29;;;;;;;3.00;2.72;;;;;;;14.41;76.84;98706.84;3588297;40;20309;-66
2021/08/03 03:01:00;;;;;;;3.13;2.67;;;;;;;14.40;76.94;98700.72;3589645;40;20059;-67
2021/08/03 03:03:31;;;;;;;3.72;2.75;;;;;;;14.43;76.91;98702.13;3590571;40;20032;-66
2021/08/03 03:06:03;;;;;;;5.18;3.10;;;;;;;14.43;76.64;98694.16;3593753;40;20048;-67
2021/08/03 03:08:34;;;;;;;2.97;2.45;;;;;;;14.45;77.21;98697.41;3593173;40;20036;-67
2021/08/03 03:11:06;;;;;;;3.10;2.75;;;;;;;14.53;76.90;98694.47;3593046;40;20047;-67
2021/08/03 03:13:41;;;;;;;4.07;3.03;;;;;;;14.51;77.25;98697.38;3589757;40;20037;-67
2021/08/03 03:16:14;;;;;;;3.45;2.85;;;;;;;14.59;76.90;98690.94;3587645;40;20522;-67
2021/08/03 03:18:44;;;;;;;6.60;3.67;;;;;;;14.47;76.79;98671.41;3587878;40;20425;-66
2021/08/03 03:21:16;;;;;;;8.15;3.92;;;;;;;14.45;78.02;98679.63;3588070;40;20048;-67
2021/08/03 03:23:48;;;;;;;5.80;3.83;;;;;;;14.44;78.38;98675.31;3588233;40;20052;-67
2021/08/03 03:26:18;;;;;;;5.20;3.35;;;;;;;14.42;78.20;98674.72;3588193;40;20040;-67
2021/08/03 03:28:47;;;;;;;4.65;3.10;;;;;;;14.48;78.92;98673.03;3587749;40;20053;-67
2021/08/03 03:31:17;;;;;;;3.35;2.92;;;;;;;14.54;78.43;98666.88;3588266;40;20052;-66
2021/08/03 03:33:46;;;;;;;4.82;3.30;;;;;;;14.57;78.50;98671.72;3588928;40;20033;-66
2021/08/03 03:36:15;;;;;;;4.18;3.33;;;;;;;14.60;78.21;98679.28;3590858;40;20048;-66
2021/08/03 03:38:44;;;;;;;7.70;6.85;;;;;;;14.59;78.09;98690.94;3590911;40;20048;-66
2021/08/03 03:41:13;;;;;;;3.33;3.03;;;;;;;14.58;78.17;98678.69;3590669;40;20063;-66
2021/08/03 03:43:42;;;;;;;6.05;4.60;;;;;;;14.60;77.79;98685.41;3590729;40;20052;-66
2021/08/03 03:46:14;;;;;;;4.03;3.35;;;;;;;14.56;77.69;98681.56;3590497;40;20066;-66
2021/08/03 03:48:51;;;;;;;4.88;3.33;;;;;;;14.49;77.98;98674.69;3589411;40;20360;-67
2021/08/03 03:51:26;;;;;;;4.82;4.03;;;;;;;14.51;78.18;98683.25;3588349;40;20052;-67
2021/08/03 03:53:55;;;;;;;;;;;;;;;14.43;78.18;98672.88;3589522;40;20051;-67
2021/08/03 03:56:29;;;;;;;4.43;3.72;;;;;;;14.36;78.32;98686.22;3587658;40;20387;-67
2021/08/03 03:59:00;;;;;;;3.22;2.78;;;;;;;14.35;78.61;98685.44;3587496;40;20387;-67
2021/08/03 04:01:29;;;;;;;4.38;3.22;;;;;;;14.36;78.46;98686.22;3589076;40;20059;-67
2021/08/03 04:04:02;;;;;;;7.10;3.13;;;;;;;14.39;78.62;98688.47;3587709;40;20129;-67
2021/08/03 04:06:33;;;;;;;5.50;3.30;;;;;;;14.38;78.92;98678.88;3587968;40;20052;-67
2021/08/03 04:09:03;;;;;;;5.32;3.72;;;;;;;14.31;79.13;98667.47;3587541;40;20441;-67
2021/08/03 04:11:33;;;;;;;4.38;3.58;;;;;;;14.24;79.50;98664.06;3588966;40;20345;-66
2021/08/03 04:14:02;;;;;;;4.45;3.03;;;;;;;14.24;80.54;98670.19;3588952;40;20044;-66
2021/08/03 04:16:30;;;;;;;3.65;3.10;;;;;;;14.43;80.95;98672.88;3588769;40;20063;-67
2021/08/03 04:18:58;;;;;;;4.43;3.20;;;;;;;14.62;80.45;98674.56;3587589;40;20064;-67
2021/08/03 04:21:27;;;;;;;5.63;3.10;;;;;;;14.71;79.46;98673.22;3588983;40;20398;-68
2021/08/03 04:23:54;;;;;;;4.43;2.90;;;;;;;14.82;79.10;98677.81;3588986;40;20047;-68
2021/08/03 04:26:22;;;;;;;3.90;3.15;;;;;;;14.88;79.14;98678.75;3591467;40;20035;-67
2021/08/03 04:28:50;;;;;;;4.00;3.00;;;;;;;14.92;79.12;98671.94;3590700;40;20390;-68
2021/08/03 04:31:18;;;;;;;2.47;2.28;;;;;;;14.93;78.69;98675.41;3590481;40;20342;-68
2021/08/03 04:33:45;;;;;;;4.45;2.78;;;;;;;14.94;78.99;98674.38;3591162;40;20103;-67
2021/08/03 04:36:13;;;;;;;5.15;2.88;;;;;;;14.96;78.50;98678.44;3590307;40;20045;-68
2021/08/03 04:38:42;;;;;;;3.50;3.15;;;;;;;14.95;78.80;98682.16;3589567;40;20044;-68
2021/08/03 04:41:10;;;;;;;4.57;3.10;;;;;;;14.99;78.11;98675.34;3588713;40;20342;-67
2021/08/03 04:43:41;;;;;;;4.15;3.10;;;;;;;15.00;78.72;98676.97;3590053;40;20415;-67
2021/08/03 04:46:09;;;;;;;4.05;2.70;;;;;;;15.06;78.49;98672.56;3590077;40;20052;-67
2021/08/03 04:48:37;;;;;;;4.07;3.28;;;;;;;15.08;77.81;98668.66;3589596;40;20041;-67
2021/08/03 04:51:06;;;;;;;3.95;2.88;;;;;;;14.99;78.83;98670.03;3590054;40;20048;-68
2021/08/03 04:53:34;;;;;;;6.35;3.38;;;;;;;15.03;79.01;98670.38;3589818;40;20044;-67
2021/08/03 04:56:04;;;;;;;5.63;2.70;;;;;;;15.07;78.78;98667.03;3589765;40;20047;-68
2021/08/03 04:58:31;;;;;;;6.57;4.25;;;;;;;15.11;78.36;98662.91;3588347;40;20056;-68
2021/08/03 05:00:59;;;;;;;5.38;4.88;;;;;;;15.21;78.52;98666.88;3589046;40;20075;-68
2021/08/03 05:03:27;;;;;;;8.77;5.10;;;;;;;15.26;78.11;98670.47;3589612;40;20056;-68
2021/08/03 05:05:55;;;;;;;8.98;3.20;;;;;;;15.30;78.31;98662.84;3590414;40;20044;-68
2021/08/03 05:08:22;;;;;;;5.45;4.15;;;;;;;15.36;77.91;98672.59;3589698;40;20060;-67
2021/08/03 05:10:50;;;;;;;4.25;3.17;;;;;;;15.38;78.07;98670.50;3591048;40;20051;-67
2021/08/03 05:13:19;;;;;;;3.35;2.58;;;;;;;15.26;77.86;98667.81;3590388;40;20051;-67
2021/08/03 05:15:48;;;;;;;5.45;3.08;;;;;;;15.22;78.01;98668.47;3589612;40;20045;-67
2021/08/03 05:18:16;;;;;;;5.43;3.08;;;;;;;15.18;78.21;98670.78;3588503;40;20056;-67
2021/08/03 05:20:45;;;;;;;4.05;2.80;;;;;;;15.14;78.21;98674.94;3588546;40;20432;-66
2021/08/03 05:23:13;;;;;;;5.45;3.30;;;;;;;15.16;78.19;98675.53;3588376;40;20056;-68
2021/08/03 05:25:41;;;;;;;7.28;3.65;;;;;;;15.22;78.32;98673.81;3588966;40;20053;-66
2021/08/03 05:28:09;;;;;;;4.10;3.10;;;;;;;15.30;78.56;98679.63;3591132;40;20052;-67
2021/08/03 05:30:38;;;;;;;4.20;3.28;;;;;;;15.45;78.80;98671.25;3590855;40;20056;-67
2021/08/03 05:33:06;;;;;;;3.67;2.72;;;;;;;15.46;77.96;98677.38;3590839;40;20052;-67
2021/08/03 05:35:33;;;;;;;3.00;2.70;;;;;;;15.46;77.58;98672.03;3588304;40;20052;-68
2021/08/03 05:38:01;;;;;;;4.57;2.97;;;;;;;15.56;77.60;98664.31;3588144;40;20037;-68
2021/08/03 05:40:29;;;;;;;3.53;3.20;;;;;;;15.62;77.95;98671.41;3589162;40;20049;-68
2021/08/03 05:42:56;;;;;;;3.38;3.03;;;;;;;15.71;77.80;98675.38;3589883;40;20084;-68
2021/08/03 05:45:26;;;;;;;3.50;2.40;;;;;;;15.75;77.16;98678.41;3589848;40;20080;-68
2021/08/03 05:47:56;;;;;;;3.53;2.90;;;;;;;15.74;77.32;98674.13;3589690;40;20065;-68
2021/08/03 05:50:23;;;;;;;5.50;3.40;;;;;;;15.70;77.35;98673.75;3589984;40;20082;-68
2021/08/03 05:52:51;;;;;;;6.43;2.75;;;;;;;15.68;76.93;98675.84;3592499;40;20044;-70
2021/08/03 05:55:19;;;;;;;2.92;2.53;;;;;;;15.70;76.88;98680.94;3592076;40;20169;-68
2021/08/03 05:57:48;;;;;;;3.08;2.47;;;;;;;15.72;77.07;98679.69;3592075;40;20303;-68
2021/08/03 06:00:16;;;;;;;3.75;2.10;;;;;;;15.72;76.31;98678.88;3589959;40;20048;-68
2021/08/03 06:02:44;;;;;;;3.92;2.30;;;;;;;15.75;76.63;98684.53;3589991;40;20085;-68
2021/08/03 06:05:14;;;;;;;4.78;2.65;;;;;;;15.75;77.06;98681.88;3589792;40;20048;-68
2021/08/03 06:07:44;;;;;;;3.13;2.25;;;;;;;15.82;76.64;98681.78;3588734;40;20068;-68
2021/08/03 06:10:14;;;;;;;4.15;2.22;;;;;;;15.84;76.60;98677.03;3589544;40;20051;-69
2021/08/03 06:12:46;;;;;;;2.05;1.70;;;;;;;15.90;76.77;98685.97;3589667;40;20055;-68
2021/08/03 06:15:14;;;;;;;3.75;2.40;;;;;;;15.90;75.96;98686.78;3589492;40;20052;-67
2021/08/03 06:17:45;;;;;;;4.35;2.22;;;;;;;15.96;76.24;98688.53;3589280;40;20084;-69
2021/08/03 06:20:15;;;;;;;2.80;2.60;;;;;;;16.11;76.35;98685.41;3588235;40;20048;-68
2021/08/03 06:22:43;;;;;;;2.42;2.22;;;;;;;16.23;76.26;98688.06;3588569;40;20061;-68
2021/08/03 06:25:15;;;;;;;2.10;1.90;;;;;;;16.26;75.82;98699.09;3588627;40;20448;-68
2021/08/03 06:27:44;;;;;;;2.88;2.08;;;;;;;16.25;75.48;98696.69;3588438;40;20084;-68
2021/08/03 06:30:13;;;;;;;2.28;2.08;;;;;;;16.23;75.21;98699.56;3589038;40;20055;-68
2021/08/03 06:32:42;;;;;;;3.60;2.08;;;;;;;16.18;75.51;98702.09;3588262;40;20045;-67
2021/08/03 06:35:12;;;;;;;7.20;2.97;;;;;;;16.19;75.94;98702.91;3589565;40;20048;-67
2021/08/03 06:37:41;;;;;;;2.80;2.55;;;;;;;16.19;76.08;98706.41;3589287;40;20060;-67
2021/08/03 06:40:10;;;;;;;3.85;2.50;;;;;;;16.19;75.98;98709.06;3589065;40;20056;-67
2021/08/03 06:42:45;;;;;;;3.83;2.83;;;;;;;16.26;75.81;98708.97;3589211;40;20056;-68
2021/08/03 06:45:18;;;;;;;2.70;2.28;;;;;;;16.29;76.12;98703.16;3588282;40;20099;-68
2021/08/03 06:48:01;;;;;;;2.83;2.30;;;;;;;16.32;75.76;98705.34;3589426;40;20043;-68
2021/08/03 06:50:31;;;;;;;3.33;2.47;;;;;;;16.34;75.95;98709.44;3588954;40;20063;-67
2021/08/03 06:53:01;;;;;;;3.30;1.95;;;;;;;16.35;76.12;98704.91;3589337;40;20313;-66
2021/08/03 06:55:31;;;;;;;2.75;1.98;;;;;;;16.31;75.77;98717.06;3589262;40;20109;-67
2021/08/03 06:58:02;;;;;;;2.80;1.90;;;;;;;16.31;76.15;98719.75;3588826;40;20096;-67
2021/08/03 07:00:38;;;;;;;3.30;2.47;;;;;;;16.30;76.16;98718.94;3589185;40;20060;-68
2021/08/03 07:03:08;;;;;;;3.40;1.83;;;;;;;16.29;76.19;98713.84;3589250;40;20044;-67
2021/08/03 07:05:43;;;;;;;4.35;2.38;;;;;;;16.34;75.67;98711.28;3588340;40;20133;-68
2021/08/03 07:08:14;;;;;;;4.93;3.53;;;;;;;16.39;76.11;98703.38;3588683;40;20044;-68
2021/08/03 07:10:44;;;;;;;2.40;1.70;;;;;;;16.38;76.19;98720.44;3589235;40;20044;-68
2021/08/03 07:13:12;;;;;;;2.70;2.22;;;;;;;16.38;75.95;98717.78;3589179;40;20044;-69
2021/08/03 07:15:41;;;;;;;3.33;2.22;;;;;;;16.33;75.77;98721.16;3589065;40;20044;-68
2021/08/03 07:18:10;;;;;;;3.25;2.10;;;;;;;16.35;76.06;98727.03;3588539;40;20047;-68
2021/08/03 07:20:40;;;;;;;2.20;1.98;;;;;;;16.38;75.90;98725.78;3589102;40;20087;-68
2021/08/03 07:23:10;;;;;;;3.72;2.28;;;;;;;16.43;75.68;98725.88;3589293;40;20048;-68
2021/08/03 07:25:40;;;;;;;4.85;2.00;;;;;;;16.43;76.16;98719.75;3588928;40;20430;-67
2021/08/03 07:28:07;;;;;;;3.42;2.20;;;;;;;16.45;76.19;98709.63;3589015;40;20063;-67
2021/08/03 07:30:35;;;;;;;2.47;1.90;;;;;;;16.39;75.65;98703.38;3589011;40;20591;-67
2021/08/03 07:33:04;;;;;;;5.13;2.30;;;;;;;16.38;75.84;98715.09;3588887;40;20106;-67
2021/08/03 07:35:31;;;;;;;2.10;1.85;;;;;;;16.30;76.17;98716.25;3589467;40;20465;-67
2021/08/03 07:37:59;;;;;;;2.65;2.22;;;;;;;16.24;76.09;98709.19;3588267;40;20384;-67
2021/08/03 07:40:27;;;;;;;2.25;2.05;;;;;;;16.14;76.32;98710.81;3589024;40;20055;-68
2021/08/03 07:42:56;;;;;;;7.25;5.38;;;;;;;16.19;76.27;98702.91;3588723;40;20056;-68
2021/08/03 07:45:24;;;;;;;2.65;2.30;;;;;;;16.13;75.97;98703.84;3589729;40;20056;-68
2021/08/03 07:47:51;;;;;;;3.33;2.30;;;;;;;16.13;76.11;98704.66;3589343;40;20052;-68
2021/08/03 07:50:20;;;;;;;2.85;2.00;;;;;;;16.21;75.92;98701.66;3589370;40;20049;-68
2021/08/03 07:52:47;;;;;;;1.77;1.67;;;;;;;16.23;75.50;98694.22;3588531;40;20052;-69
2021/08/03 07:55:15;;;;;;;1.83;1.67;;;;;;;16.23;74.93;98699.56;3589337;40;20347;-68
2021/08/03 07:57:43;;;;;;;1.63;1.52;;;;;;;16.22;74.96;98699.78;3589351;40;20044;-68
2021/08/03 08:00:14;;;;;;;2.63;1.60;;;;;;;16.26;75.36;98704.44;3589135;40;20056;-68
2021/08/03 08:02:42;;;;;;;4.35;2.70;;;;;;;16.28;75.00;98706.84;3589533;40;20051;-68
2021/08/03 08:05:11;;;;;;;4.07;1.77;;;;;;;16.33;75.17;98707.81;3588763;40;20044;-69
2021/08/03 08:07:38;;;;;;;2.85;2.08;;;;;;;16.32;74.63;98711.50;3589641;40;20386;-68
2021/08/03 08:10:07;;;;;;;2.65;1.55;;;;;;;16.37;74.79;98715.31;3588850;40;20048;-68
2021/08/03 08:12:35;;;;;;;2.58;2.17;;;;;;;16.43;74.64;98701.88;3589263;40;20067;-68
2021/08/03 08:15:03;;;;;;;2.67;1.70;;;;;;;16.34;74.82;98714.75;3589610;40;20072;-68
2021/08/03 08:17:32;;;;;;;2.67;1.63;;;;;;;16.33;74.29;98710.47;3588987;40;20076;-69
2021/08/03 08:20:00;;;;;;;3.15;1.50;;;;;;;16.30;74.57;98705.59;3589790;40;20394;-68
2021/08/03 08:22:27;;;;;;;3.25;2.20;;;;;;;16.32;75.07;98700.81;3588548;40;20048;-68
2021/08/03 08:24:55;;;;;;;7.20;5.82;;;;;;;16.42;74.92;98708.25;3589571;40;20059;-69
2021/08/03 08:27:23;;;;;;;4.88;4.43;;;;;;;16.42;74.99;98702.13;3589170;40;20040;-69
2021/08/03 08:29:51;;;;;;;4.15;2.40;;;;;;;16.39;75.43;98699.91;3588378;40;20087;-69
2021/08/03 08:32:19;;;;;;;2.45;2.13;;;;;;;16.37;75.12;98702.81;3588831;40;20052;-69
2021/08/03 08:34:48;;;;;;;3.15;2.30;;;;;;;16.42;75.72;98699.44;3588548;40;20048;-68
2021/08/03 08:37:15;;;;;;;2.33;2.00;;;;;;;16.38;75.05;98699.09;3589227;40;20048;-68
2021/08/03 08:39:43;;;;;;;4.78;1.92;;;;;;;16.35;75.41;98692.38;3588398;40;20040;-68
2021/08/03 08:42:11;;;;;;;1.98;1.60;;;;;;;16.36;74.68;98690.50;3587983;40;20052;-68
2021/08/03 08:44:39;;;;;;;3.42;1.60;;;;;;;16.36;74.93;98682.50;3589207;40;20060;-68
2021/08/03 08:47:08;;;;;;;3.85;3.05;;;;;;;16.40;74.86;98688.19;3587527;40;20044;-67
2021/08/03 08:49:36;;;;;;;11.07;8.95;;;;;;;16.44;74.86;98676.81;3588427;40;20072;-67
2021/08/03 08:52:07;;;;;;;3.85;3.45;;;;;;;16.45;74.83;98681.13;3588483;40;20052;-67
2021/08/03 08:54:35;;;;;;;3.30;3.00;;;;;;;16.46;74.48;98679.28;3588350;40;20521;-68
2021/08/03 08:57:03;;;;;;;2.30;2.10;;;;;;;16.33;73.85;98667.78;3588351;40;20080;-69
2021/08/03 08:59:31;;;;;;;3.05;1.80;;;;;;;16.29;74.82;98666.63;3587102;40;20080;-69
2021/08/03 09:01:59;;;;;;;3.50;2.88;;;;;;;16.34;74.53;98671.28;3588299;40;20056;-68
2021/08/03 09:04:28;;;;;;;3.42;2.72;;;;;;;16.39;74.91;98668.72;3588183;40;20057;-67
2021/08/03 09:07:01;;;;;;;3.60;2.75;;;;;;;16.43;74.95;98661.06;3587185;40;20338;-67
2021/08/03 09:09:39;;;;;;;2.70;1.52;;;;;;;16.45;74.34;98662.44;3589944;40;20084;-67
2021/08/03 09:12:07;;;;;;;3.30;1.45;;;;;;;16.49;74.52;98652.09;3590232;40;20044;-67
2021/08/03 09:14:37;;;;;;;1.40;1.20;;;;;;;16.60;74.41;98665.41;3590096;40;20309;-68
2021/08/03 09:17:06;;;;;;;5.00;3.25;;;;;;;16.62;74.22;98669.75;3589722;40;20603;-67
2021/08/03 09:19:37;;;;;;;6.55;5.25;;;;;;;16.69;73.88;98670.41;3588786;40;20063;-67
2021/08/03 09:22:14;;;;;;;2.83;1.73;;;;;;;16.75;74.20;98670.31;3589109;40;20122;-67
2021/08/03 09:24:46;;;;;;;3.78;2.63;;;;;;;16.78;74.06;98661.84;3589704;40;20350;-67
2021/08/03 09:27:37;;;;;;;2.83;1.58;;;;;;;16.75;73.73;98664.16;3589786;40;20401;-68
2021/08/03 09:30:06;;;;;;;1.85;1.42;;;;;;;16.75;73.95;98659.63;3589676;40;20052;-68
2021/08/03 09:32:37;;;;;;;4.75;1.30;;;;;;;16.75;73.70;98664.97;3588758;40;20390;-69
2021/08/03 09:35:10;;;;;;;2.45;1.15;;;;;;;16.87;73.07;98670.28;3590119;40;20073;-68
2021/08/03 09:37:39;;;;;;;2.03;1.45;;;;;;;16.96;72.76;98670.72;3589643;40;20419;-68
2021/08/03 09:40:20;;;;;;;2.10;1.23;;;;;;;17.07;72.56;98677.91;3588481;40;20080;-68
2021/08/03 09:42:58;;;;;;;2.00;1.50;;;;;;;17.21;72.03;98665.88;3588829;40;20063;-68
2021/08/03 09:45:27;;;;;;;2.50;1.10;;;;;;;17.31;71.95;98662.59;3589561;40;20056;-68
2021/08/03 09:48:08;;;;;;;1.45;1.30;;;;;;;17.47;71.46;98672.50;3588424;40;20065;-67
2021/08/03 09:50:52;;;;;;;2.05;1.50;;;;;;;17.56;70.71;98683.59;3589504;40;20053;-69
2021/08/03 09:53:44;;;;;;;2.78;1.38;;;;;;;17.75;70.47;98689.56;3588761;40;20281;-68
2021/08/03 09:56:15;;;;;;;3.22;1.55;;;;;;;17.93;70.25;98694.69;3589321;40;20401;-68
2021/08/03 09:58:54;;;;;;;1.80;1.23;;;;;;;17.91;70.31;98696.78;3589034;40;20055;-67
2021/08/03 10:01:34;;;;;;;1.58;1.40;;;;;;;18.03;69.93;98704.72;3580469;40;20627;-67
2021/08/03 10:04:07;;;;;;;1.42;1.27;;;;;;;18.04;70.60;98709.00;3589654;40;20080;-67
2021/08/03 10:06:35;;;;;;;2.83;1.48;;;;;;;18.02;70.49;98706.59;3589716;40;20051;-67
2021/08/03 10:09:05;;;;;;;1.63;1.52;;;;;;;17.86;71.20;98690.53;3589339;40;20325;-67
2021/08/03 10:11:35;;;;;;;2.17;1.50;;;;;;;17.89;71.54;98698.91;3589269;40;20048;-67
2021/08/03 10:14:23;;;;;;;2.05;1.33;;;;;;;17.90;71.42;98689.00;3589663;40;20615;-67
2021/08/03 10:16:53;;;;;;;1.90;1.48;;;;;;;18.03;71.42;98684.13;3589427;40;20313;-68
2021/08/03 10:19:23;;;;;;;1.63;1.52;;;;;;;18.18;70.92;98680.91;3589097;40;20044;-68
2021/08/03 10:22:09;;;;;;;1.65;1.42;;;;;;;18.16;70.56;98668.81;3589169;40;20056;-68
2021/08/03 10:24:41;;;;;;;1.40;1.30;;;;;;;18.20;70.32;98656.56;3589248;40;20052;-68
2021/08/03 10:27:12;;;;;;;1.70;1.60;;;;;;;18.14;70.40;98653.00;3589154;40;20431;-68
2021/08/03 10:29:47;;;;;;;1.50;1.40;;;;;;;18.16;70.79;98634.84;3587897;40;20052;-67
2021/08/03 10:32:38;;;;;;;2.13;1.58;;;;;;;18.29;70.27;98621.13;3589470;40;20410;-67
2021/08/03 10:35:08;;;;;;;1.73;1.63;;;;;;;18.37;70.13;98621.75;3589115;40;20059;-67
2021/08/03 10:38:08;;;;;;;2.45;1.52;;;;;;;18.37;70.28;98613.72;3589070;40;20051;-68
2021/08/03 10:41:10;;;;;;;1.88;1.75;;;;;;;18.67;69.89;98605.28;3589002;40;20055;-68
2021/08/03 10:43:51;;;;;;;1.88;1.73;;;;;;;18.93;70.25;98599.16;3549211;40;20090;-68
2021/08/03 10:46:38;;;;;;;1.50;1.40;;;;;;;19.21;69.12;98608.03;3549010;40;20054;-67
2021/08/03 10:49:08;;;;;;;2.67;1.42;;;;;;;19.47;68.65;98593.81;3578623;40;20036;-68
2021/08/03 10:51:57;;;;;;;1.50;1.40;;;;;;;19.64;69.13;98587.53;3589205;40;20084;-69
2021/08/03 10:54:30;;;;;;;1.70;1.30;;;;;;;19.80;67.90;98594.63;3589095;40;20084;-68
2021/08/03 10:57:19;;;;;;;3.05;1.98;;;;;;;19.97;66.87;98586.41;3589014;40;20291;-68
2021/08/03 11:00:01;;;;;;;3.08;2.05;;;;;;;19.96;67.23;98587.47;3587980;40;20084;-68
2021/08/03 11:02:48;;;;;;;1.30;1.20;;;;;;;19.98;66.47;98585.34;3589080;40;20040;-69
2021/08/03 11:05:42;;;;;;;1.58;1.20;;;;;;;20.16;66.72;98584.09;3588019;40;20059;-68
2021/08/03 11:08:37;;;;;;;1.13;1.13;;;;;;;20.24;65.18;98588.97;3581088;40;20059;-68
2021/08/03 11:11:08;;;;;;;0.98;0.90;;;;;;;20.05;65.11;98596.66;3588886;40;20052;-69
2021/08/03 11:13:44;;;;;;;1.60;1.00;;;;;;;20.12;64.46;98596.41;3588916;40;20343;-69
2021/08/03 11:16:54;;;;;;;1.17;0.95;;;;;;;20.06;64.37;98590.22;3587872;40;20088;-69
2021/08/03 11:19:35;;;;;;;1.77;1.35;;;;;;;20.16;65.15;98590.28;3588102;40;20048;-69
2021/08/03 11:22:05;;;;;;;0.90;0.90;;;;;;;20.25;64.62;98588.72;3589300;40;20381;-67
2021/08/03 11:24:42;;;;;;;0.93;0.82;;;;;;;20.34;63.92;98588.22;3589182;40;20424;-67
2021/08/03 11:27:11;;;;;;;1.63;1.10;;;;;;;20.63;63.53;98588.66;3592241;40;20056;-68
2021/08/03 11:29:41;;;;;;;1.10;0.95;;;;;;;20.67;62.58;98584.38;3591478;40;20044;-67
2021/08/03 11:32:10;;;;;;;1.17;0.90;;;;;;;20.65;61.12;98583.81;3593533;40;20059;-67
2021/08/03 11:34:42;;;;;;;1.33;1.20;;;;;;;20.81;60.86;98582.78;3594864;40;20060;-67
2021/08/03 11:37:17;;;;;;;1.60;0.90;;;;;;;21.01;60.51;98579.34;3588324;40;20051;-67
2021/08/03 11:39:49;;;;;;;1.67;0.98;;;;;;;21.17;59.30;98572.13;3588236;40;20059;-67
2021/08/03 11:42:22;;;;;;;1.10;1.00;;;;;;;21.03;58.88;98567.28;3588989;40;20045;-68
2021/08/03 11:45:10;;;;;;;0.75;0.75;;;;;;;21.14;59.19;98573.44;3589843;40;20088;-68
2021/08/03 11:47:47;;;;;;;0.65;0.65;;;;;;;21.26;57.73;98578.56;3589028;40;20100;-69
2021/08/03 11:50:20;;;;;;;1.10;0.80;;;;;;;21.22;57.12;98566.75;3590544;40;20084;-69
2021/08/03 11:52:47;;;;;;;2.15;1.10;;;;;;;21.23;57.22;98565.69;3591505;40;20052;-69
2021/08/03 11:55:16;;;;;;;2.75;1.00;;;;;;;21.32;57.10;98564.09;3593367;40;20056;-68